Anzahl Datensätze: 288
min. Temperatur: 13.4 °C
max. Temperatur: 28.6 °C
max. Windgeschwindigkeit: 24.1 km/h
Niederschlagsumme: 7.0 mm
| Datum |
Zeit |
Temp °C |
Feuchte % |
Taupunkt °C |
Luftdruck hPa |
Wind km/h |
Windrichtung |
Strahlung w/m² |
Niederschlag mm |
|---|---|---|---|---|---|---|---|---|---|
| 12.07.2021 | 00:04 | 15.7 | 88 | 13.7 | 1013.7 | 0.0 | NNW | 0 | 0.0 |
| 12.07.2021 | 00:08 | 15.7 | 88 | 13.7 | 1013.8 | 0.0 | NNW | 0 | 0.0 |
| 12.07.2021 | 00:14 | 15.6 | 88 | 13.6 | 1013.8 | 0.0 | NNW | 0 | 0.0 |
| 12.07.2021 | 00:18 | 15.6 | 89 | 13.8 | 1013.8 | 0.0 | NNW | 0 | 0.0 |
| 12.07.2021 | 00:24 | 15.4 | 89 | 13.6 | 1013.7 | 0.0 | NNW | 0 | 0.0 |
| 12.07.2021 | 00:28 | 15.4 | 89 | 13.6 | 1013.8 | 0.0 | NNW | 0 | 0.0 |
| 12.07.2021 | 00:34 | 15.3 | 90 | 13.7 | 1013.7 | 0.0 | NNW | 0 | 0.0 |
| 12.07.2021 | 00:38 | 15.2 | 90 | 13.6 | 1013.8 | 0.0 | NNW | 0 | 0.0 |
| 12.07.2021 | 00:44 | 15.2 | 90 | 13.6 | 1013.7 | 0.0 | NNW | 0 | 0.0 |
| 12.07.2021 | 00:48 | 15.1 | 90 | 13.5 | 1013.7 | 0.0 | NNW | 0 | 0.0 |
| 12.07.2021 | 00:54 | 15.1 | 90 | 13.5 | 1013.6 | 0.0 | NNW | 0 | 0.0 |
| 12.07.2021 | 00:58 | 15.1 | 90 | 13.5 | 1013.5 | 0.0 | NNW | 0 | 0.0 |
| 12.07.2021 | 01:04 | 15.0 | 90 | 13.4 | 1013.4 | 0.0 | NNW | 0 | 0.0 |
| 12.07.2021 | 01:08 | 14.9 | 90 | 13.3 | 1013.4 | 0.0 | NNW | 0 | 0.0 |
| 12.07.2021 | 01:14 | 14.8 | 90 | 13.2 | 1013.3 | 0.0 | NNW | 0 | 0.0 |
| 12.07.2021 | 01:18 | 14.8 | 91 | 13.3 | 1013.2 | 0.0 | NNW | 0 | 0.0 |
| 12.07.2021 | 01:24 | 14.7 | 91 | 13.2 | 1013.0 | 0.0 | NNW | 0 | 0.0 |
| 12.07.2021 | 01:28 | 14.7 | 91 | 13.2 | 1013.0 | 0.0 | NNW | 0 | 0.0 |
| 12.07.2021 | 01:34 | 14.6 | 91 | 13.1 | 1013.1 | 0.0 | N | 0 | 0.0 |
| 12.07.2021 | 01:38 | 14.6 | 91 | 13.1 | 1013.0 | 0.0 | N | 0 | 0.0 |
| 12.07.2021 | 01:44 | 14.4 | 92 | 13.1 | 1013.1 | 0.0 | N | 0 | 0.0 |
| 12.07.2021 | 01:48 | 14.4 | 92 | 13.1 | 1013.1 | 0.0 | N | 0 | 0.0 |
| 12.07.2021 | 01:54 | 14.4 | 92 | 13.1 | 1013.1 | 0.0 | N | 0 | 0.0 |
| 12.07.2021 | 01:58 | 14.3 | 92 | 13.0 | 1013.1 | 0.0 | N | 0 | 0.0 |
| 12.07.2021 | 02:04 | 14.3 | 92 | 13.0 | 1012.9 | 0.0 | N | 0 | 0.0 |
| 12.07.2021 | 02:08 | 14.3 | 92 | 13.0 | 1012.8 | 0.0 | N | 0 | 0.0 |
| 12.07.2021 | 02:14 | 14.2 | 93 | 13.1 | 1012.9 | 0.0 | N | 0 | 0.0 |
| 12.07.2021 | 02:18 | 14.2 | 93 | 13.1 | 1012.8 | 0.0 | N | 0 | 0.0 |
| 12.07.2021 | 02:24 | 14.2 | 93 | 13.1 | 1012.7 | 0.0 | NNW | 0 | 0.0 |
| 12.07.2021 | 02:28 | 14.1 | 94 | 13.1 | 1012.7 | 0.0 | NNW | 0 | 0.0 |
| 12.07.2021 | 02:34 | 14.1 | 94 | 13.1 | 1012.6 | 0.0 | NNW | 0 | 0.0 |
| 12.07.2021 | 02:38 | 14.1 | 94 | 13.1 | 1012.7 | 0.0 | NNW | 0 | 0.0 |
| 12.07.2021 | 02:44 | 14.1 | 94 | 13.1 | 1012.5 | 0.0 | NNW | 0 | 0.0 |
| 12.07.2021 | 02:48 | 14.1 | 94 | 13.1 | 1012.4 | 0.0 | NNW | 0 | 0.0 |
| 12.07.2021 | 02:54 | 14.1 | 94 | 13.1 | 1012.3 | 0.0 | NNW | 0 | 0.0 |
| 12.07.2021 | 02:58 | 14.1 | 94 | 13.1 | 1012.3 | 0.0 | NNW | 0 | 0.0 |
| 12.07.2021 | 03:04 | 14.1 | 95 | 13.3 | 1012.1 | 0.0 | N | 0 | 0.0 |
| 12.07.2021 | 03:08 | 14.1 | 95 | 13.3 | 1012.1 | 0.0 | N | 0 | 0.0 |
| 12.07.2021 | 03:14 | 14.1 | 95 | 13.3 | 1012.2 | 0.0 | N | 0 | 0.0 |
| 12.07.2021 | 03:18 | 14.0 | 95 | 13.2 | 1012.1 | 1.4 | N | 0 | 0.0 |
| 12.07.2021 | 03:24 | 14.0 | 95 | 13.2 | 1012.1 | 3.2 | N | 0 | 0.0 |
| 12.07.2021 | 03:28 | 14.0 | 95 | 13.2 | 1012.2 | 1.4 | N | 0 | 0.0 |
| 12.07.2021 | 03:34 | 14.0 | 95 | 13.2 | 1012.2 | 0.0 | N | 0 | 0.0 |
| 12.07.2021 | 03:38 | 13.9 | 95 | 13.1 | 1012.1 | 0.0 | N | 0 | 0.0 |
| 12.07.2021 | 03:44 | 13.9 | 95 | 13.1 | 1012.2 | 0.0 | N | 0 | 0.0 |
| 12.07.2021 | 03:48 | 13.9 | 95 | 13.1 | 1012.2 | 1.4 | N | 0 | 0.0 |
| 12.07.2021 | 03:54 | 13.9 | 96 | 13.3 | 1012.3 | 1.4 | N | 0 | 0.0 |
| 12.07.2021 | 03:58 | 13.9 | 96 | 13.3 | 1012.3 | 1.4 | N | 0 | 0.0 |
| 12.07.2021 | 04:04 | 13.9 | 96 | 13.3 | 1012.2 | 0.0 | N | 0 | 0.0 |
| 12.07.2021 | 04:08 | 13.9 | 96 | 13.3 | 1012.1 | 0.0 | N | 0 | 0.0 |
| 12.07.2021 | 04:14 | 13.9 | 96 | 13.3 | 1012.2 | 0.0 | N | 0 | 0.0 |
| 12.07.2021 | 04:18 | 13.9 | 96 | 13.3 | 1012.1 | 0.0 | N | 0 | 0.0 |
| 12.07.2021 | 04:24 | 13.8 | 95 | 13.0 | 1012.1 | 0.0 | N | 0 | 0.0 |
| 12.07.2021 | 04:28 | 13.8 | 95 | 13.0 | 1012.1 | 0.0 | N | 0 | 0.0 |
| 12.07.2021 | 04:34 | 13.8 | 95 | 13.0 | 1012.1 | 0.0 | N | 0 | 0.0 |
| 12.07.2021 | 04:38 | 13.8 | 95 | 13.0 | 1012.0 | 0.0 | N | 0 | 0.0 |
| 12.07.2021 | 04:44 | 13.7 | 95 | 12.9 | 1012.0 | 0.0 | N | 0 | 0.0 |
| 12.07.2021 | 04:48 | 13.7 | 95 | 12.9 | 1011.9 | 0.0 | N | 0 | 0.0 |
| 12.07.2021 | 04:54 | 13.6 | 95 | 12.8 | 1011.9 | 0.0 | N | 0 | 0.0 |
| 12.07.2021 | 04:58 | 13.6 | 95 | 12.8 | 1011.9 | 0.0 | N | 0 | 0.0 |
| 12.07.2021 | 05:04 | 13.6 | 95 | 12.8 | 1011.9 | 0.0 | N | 0 | 0.0 |
| 12.07.2021 | 05:08 | 13.6 | 95 | 12.8 | 1011.8 | 0.0 | N | 0 | 0.0 |
| 12.07.2021 | 05:14 | 13.5 | 95 | 12.7 | 1011.8 | 0.0 | N | 0 | 0.0 |
| 12.07.2021 | 05:18 | 13.4 | 95 | 12.6 | 1011.8 | 0.0 | N | 0 | 0.0 |
| 12.07.2021 | 05:24 | 13.4 | 95 | 12.6 | 1011.8 | 1.4 | N | 0 | 0.0 |
| 12.07.2021 | 05:28 | 13.4 | 96 | 12.8 | 1011.8 | 0.0 | N | 0 | 0.0 |
| 12.07.2021 | 05:34 | 13.4 | 96 | 12.8 | 1011.7 | 1.4 | N | 5 | 0.0 |
| 12.07.2021 | 05:38 | 13.4 | 96 | 12.8 | 1011.6 | 1.4 | N | 7 | 0.0 |
| 12.07.2021 | 05:44 | 13.4 | 96 | 12.8 | 1011.5 | 1.4 | N | 9 | 0.0 |
| 12.07.2021 | 05:48 | 13.4 | 96 | 12.8 | 1011.4 | 1.4 | N | 12 | 0.0 |
| 12.07.2021 | 05:54 | 13.4 | 96 | 12.8 | 1011.3 | 0.0 | N | 18 | 0.0 |
| 12.07.2021 | 05:58 | 13.4 | 96 | 12.8 | 1011.4 | 0.0 | N | 19 | 0.0 |
| 12.07.2021 | 06:04 | 13.4 | 96 | 12.8 | 1011.3 | 0.0 | NNW | 25 | 0.0 |
| 12.07.2021 | 06:08 | 13.4 | 97 | 12.9 | 1011.4 | 0.0 | NNW | 30 | 0.0 |
| 12.07.2021 | 06:14 | 13.5 | 97 | 13.0 | 1011.3 | 0.0 | NNW | 37 | 0.0 |
| 12.07.2021 | 06:18 | 13.5 | 97 | 13.0 | 1011.3 | 0.0 | NNW | 39 | 0.0 |
| 12.07.2021 | 06:24 | 13.6 | 97 | 13.1 | 1011.3 | 0.0 | NNW | 42 | 0.0 |
| 12.07.2021 | 06:28 | 13.6 | 97 | 13.1 | 1011.3 | 1.4 | O | 42 | 0.0 |
| 12.07.2021 | 06:34 | 13.8 | 97 | 13.3 | 1011.3 | 0.0 | NNW | 44 | 0.0 |
| 12.07.2021 | 06:38 | 13.8 | 97 | 13.3 | 1011.3 | 1.4 | N | 46 | 0.0 |
| 12.07.2021 | 06:44 | 13.9 | 97 | 13.4 | 1011.3 | 1.4 | NNW | 47 | 0.0 |
| 12.07.2021 | 06:48 | 14.0 | 97 | 13.5 | 1011.2 | 0.0 | N | 47 | 0.0 |
| 12.07.2021 | 06:54 | 14.1 | 97 | 13.6 | 1011.2 | 0.0 | NNW | 47 | 0.0 |
| 12.07.2021 | 06:58 | 14.1 | 98 | 13.8 | 1011.1 | 0.0 | N | 49 | 0.0 |
| 12.07.2021 | 07:04 | 14.2 | 97 | 13.7 | 1011.2 | 0.0 | NNW | 53 | 0.0 |
| 12.07.2021 | 07:08 | 14.2 | 97 | 13.7 | 1011.1 | 0.0 | ONO | 54 | 0.0 |
| 12.07.2021 | 07:14 | 14.2 | 97 | 13.7 | 1011.0 | 0.0 | N | 63 | 0.0 |
| 12.07.2021 | 07:18 | 14.3 | 97 | 13.8 | 1010.9 | 1.4 | N | 67 | 0.0 |
| 12.07.2021 | 07:24 | 14.4 | 97 | 13.9 | 1010.9 | 3.2 | NNO | 72 | 0.0 |
| 12.07.2021 | 07:28 | 14.4 | 97 | 13.9 | 1010.9 | 1.4 | N | 72 | 0.0 |
| 12.07.2021 | 07:34 | 14.6 | 97 | 14.1 | 1010.8 | 1.4 | W | 67 | 0.0 |
| 12.07.2021 | 07:38 | 14.7 | 97 | 14.2 | 1010.9 | 1.4 | W | 67 | 0.0 |
| 12.07.2021 | 07:44 | 14.8 | 97 | 14.3 | 1010.9 | 1.4 | N | 77 | 0.0 |
| 12.07.2021 | 07:48 | 14.9 | 97 | 14.4 | 1010.9 | 1.4 | NNW | 81 | 0.0 |
| 12.07.2021 | 07:54 | 15.1 | 97 | 14.6 | 1010.9 | 1.4 | N | 144 | 0.0 |
| 12.07.2021 | 07:58 | 15.2 | 96 | 14.6 | 1010.9 | 3.2 | N | 271 | 0.0 |
| 12.07.2021 | 08:04 | 15.5 | 95 | 14.7 | 1010.8 | 3.2 | NNW | 295 | 0.0 |
| 12.07.2021 | 08:08 | 15.7 | 95 | 14.9 | 1010.9 | 1.4 | NNW | 313 | 0.0 |
| 12.07.2021 | 08:14 | 16.0 | 94 | 15.0 | 1010.8 | 1.4 | NNW | 359 | 0.0 |
| 12.07.2021 | 08:18 | 16.2 | 93 | 15.1 | 1010.8 | 1.4 | NNW | 309 | 0.0 |
| 12.07.2021 | 08:24 | 16.6 | 92 | 15.3 | 1010.9 | 3.2 | NW | 308 | 0.0 |
| 12.07.2021 | 08:30 | 16.8 | 91 | 15.3 | 1010.8 | 3.2 | N | 269 | 0.0 |
| 12.07.2021 | 08:34 | 16.9 | 91 | 15.4 | 1010.8 | 3.2 | NNW | 232 | 0.0 |
| 12.07.2021 | 08:40 | 17.2 | 89 | 15.4 | 1010.6 | 1.4 | N | 262 | 0.0 |
| 12.07.2021 | 08:44 | 17.3 | 89 | 15.5 | 1010.5 | 1.4 | N | 290 | 0.0 |
| 12.07.2021 | 08:50 | 17.5 | 89 | 15.7 | 1010.3 | 4.7 | NNO | 341 | 0.0 |
| 12.07.2021 | 08:54 | 17.6 | 88 | 15.6 | 1010.2 | 6.5 | NO | 411 | 0.0 |
| 12.07.2021 | 09:00 | 17.9 | 87 | 15.7 | 1010.0 | 6.5 | N | 392 | 0.0 |
| 12.07.2021 | 09:04 | 18.1 | 87 | 15.9 | 1009.9 | 6.5 | NNO | 362 | 0.0 |
| 12.07.2021 | 09:10 | 18.4 | 85 | 15.8 | 1009.8 | 7.9 | N | 408 | 0.0 |
| 12.07.2021 | 09:14 | 18.6 | 85 | 16.0 | 1009.9 | 6.5 | NNO | 381 | 0.0 |
| 12.07.2021 | 09:20 | 18.7 | 84 | 15.9 | 1009.8 | 6.5 | NNO | 304 | 0.0 |
| 12.07.2021 | 09:24 | 18.8 | 84 | 16.0 | 1009.8 | 6.5 | ONO | 359 | 0.0 |
| 12.07.2021 | 09:28 | 19.1 | 83 | 16.1 | 1009.7 | 4.7 | N | 462 | 0.0 |
| 12.07.2021 | 09:34 | 19.4 | 82 | 16.2 | 1009.5 | 3.2 | NO | 540 | 0.0 |
| 12.07.2021 | 09:38 | 19.7 | 82 | 16.5 | 1009.4 | 3.2 | NO | 485 | 0.0 |
| 12.07.2021 | 09:44 | 19.9 | 81 | 16.5 | 1009.5 | 3.2 | NNO | 439 | 0.0 |
| 12.07.2021 | 09:48 | 20.2 | 80 | 16.6 | 1009.4 | 4.7 | N | 452 | 0.0 |
| 12.07.2021 | 09:54 | 20.3 | 80 | 16.7 | 1009.3 | 4.7 | NNO | 478 | 0.0 |
| 12.07.2021 | 09:58 | 20.6 | 79 | 16.8 | 1009.1 | 4.7 | NNO | 443 | 0.0 |
| 12.07.2021 | 10:04 | 20.8 | 79 | 17.0 | 1009.0 | 4.7 | NO | 371 | 0.0 |
| 12.07.2021 | 10:08 | 20.9 | 78 | 16.9 | 1008.9 | 4.7 | NNO | 366 | 0.0 |
| 12.07.2021 | 10:14 | 21.1 | 78 | 17.1 | 1008.7 | 4.7 | NNO | 334 | 0.0 |
| 12.07.2021 | 10:18 | 21.2 | 77 | 17.0 | 1008.4 | 6.5 | N | 330 | 0.0 |
| 12.07.2021 | 10:24 | 21.2 | 77 | 17.0 | 1008.4 | 7.9 | ONO | 334 | 0.0 |
| 12.07.2021 | 10:28 | 21.2 | 78 | 17.2 | 1008.5 | 7.9 | N | 350 | 0.0 |
| 12.07.2021 | 10:34 | 21.3 | 77 | 17.1 | 1008.6 | 4.7 | NNO | 341 | 0.0 |
| 12.07.2021 | 10:38 | 21.4 | 78 | 17.4 | 1008.7 | 3.2 | NNO | 350 | 0.0 |
| 12.07.2021 | 10:44 | 21.6 | 76 | 17.2 | 1008.7 | 1.4 | NNO | 396 | 0.0 |
| 12.07.2021 | 10:48 | 21.7 | 75 | 17.1 | 1008.7 | 3.2 | NNO | 373 | 0.0 |
| 12.07.2021 | 10:54 | 21.9 | 74 | 17.1 | 1008.4 | 6.5 | NNO | 396 | 0.0 |
| 12.07.2021 | 10:58 | 21.9 | 74 | 17.1 | 1008.2 | 6.5 | NO | 364 | 0.0 |
| 12.07.2021 | 11:04 | 22.2 | 75 | 17.6 | 1008.4 | 4.7 | ONO | 378 | 0.0 |
| 12.07.2021 | 11:08 | 22.3 | 74 | 17.4 | 1008.9 | 3.2 | NNO | 404 | 0.0 |
| 12.07.2021 | 11:14 | 22.4 | 74 | 17.5 | 1008.9 | 1.4 | NNO | 376 | 0.0 |
| 12.07.2021 | 11:18 | 22.6 | 74 | 17.7 | 1008.9 | 1.4 | NNO | 366 | 0.0 |
| 12.07.2021 | 11:24 | 22.8 | 72 | 17.5 | 1008.9 | 3.2 | NO | 417 | 0.0 |
| 12.07.2021 | 11:28 | 22.9 | 71 | 17.4 | 1008.8 | 4.7 | NNO | 427 | 0.0 |
| 12.07.2021 | 11:34 | 23.1 | 71 | 17.6 | 1008.7 | 3.2 | ONO | 432 | 0.0 |
| 12.07.2021 | 11:38 | 23.3 | 73 | 18.2 | 1008.7 | 3.2 | NNO | 446 | 0.0 |
| 12.07.2021 | 11:44 | 23.4 | 70 | 17.6 | 1008.7 | 3.2 | N | 492 | 0.0 |
| 12.07.2021 | 11:48 | 23.7 | 71 | 18.1 | 1008.6 | 3.2 | NNO | 536 | 0.0 |
| 12.07.2021 | 11:54 | 23.8 | 69 | 17.8 | 1008.5 | 4.7 | NO | 554 | 0.0 |
| 12.07.2021 | 11:58 | 24.0 | 70 | 18.2 | 1008.4 | 6.5 | NNO | 520 | 0.0 |
| 12.07.2021 | 12:04 | 24.1 | 67 | 17.6 | 1008.4 | 6.5 | NNW | 504 | 0.0 |
| 12.07.2021 | 12:08 | 24.3 | 69 | 18.2 | 1008.3 | 4.7 | NNO | 496 | 0.0 |
| 12.07.2021 | 12:14 | 24.4 | 67 | 17.9 | 1008.3 | 3.2 | NO | 534 | 0.0 |
| 12.07.2021 | 12:18 | 24.6 | 69 | 18.5 | 1008.4 | 3.2 | ONO | 563 | 0.0 |
| 12.07.2021 | 12:24 | 24.8 | 66 | 18.0 | 1008.5 | 3.2 | N | 541 | 0.0 |
| 12.07.2021 | 12:28 | 25.0 | 67 | 18.4 | 1008.4 | 1.4 | NO | 592 | 0.0 |
| 12.07.2021 | 12:34 | 25.2 | 66 | 18.4 | 1008.5 | 4.7 | NO | 613 | 0.0 |
| 12.07.2021 | 12:38 | 25.4 | 65 | 18.3 | 1008.5 | 3.2 | ONO | 636 | 0.0 |
| 12.07.2021 | 12:44 | 25.6 | 66 | 18.8 | 1008.5 | 1.4 | NO | 663 | 0.0 |
| 12.07.2021 | 12:48 | 25.8 | 67 | 19.2 | 1008.5 | 1.4 | NNW | 536 | 0.0 |
| 12.07.2021 | 12:54 | 25.9 | 63 | 18.3 | 1008.5 | 1.4 | NNW | 654 | 0.0 |
| 12.07.2021 | 12:58 | 26.2 | 64 | 18.8 | 1008.6 | 1.4 | NO | 747 | 0.0 |
| 12.07.2021 | 13:04 | 26.6 | 62 | 18.7 | 1008.6 | 1.4 | NW | 919 | 0.0 |
| 12.07.2021 | 13:08 | 26.8 | 61 | 18.6 | 1008.6 | 1.4 | NNO | 923 | 0.0 |
| 12.07.2021 | 13:14 | 27.3 | 59 | 18.6 | 1008.5 | 0.0 | NNO | 591 | 0.0 |
| 12.07.2021 | 13:18 | 27.3 | 57 | 18.0 | 1008.5 | 1.4 | NO | 580 | 0.0 |
| 12.07.2021 | 13:24 | 27.4 | 56 | 17.8 | 1008.2 | 1.4 | N | 1044 | 0.0 |
| 12.07.2021 | 13:28 | 27.6 | 60 | 19.1 | 1008.1 | 1.4 | N | 983 | 0.0 |
| 12.07.2021 | 13:34 | 27.7 | 58 | 18.7 | 1008.0 | 3.2 | NNO | 508 | 0.0 |
| 12.07.2021 | 13:38 | 27.7 | 58 | 18.7 | 1008.0 | 3.2 | NO | 380 | 0.0 |
| 12.07.2021 | 13:44 | 27.7 | 56 | 18.1 | 1008.0 | 1.4 | NO | 814 | 0.0 |
| 12.07.2021 | 13:48 | 27.8 | 56 | 18.2 | 1008.0 | 3.2 | ONO | 592 | 0.0 |
| 12.07.2021 | 13:54 | 28.0 | 56 | 18.4 | 1007.8 | 3.2 | NNW | 647 | 0.0 |
| 12.07.2021 | 13:58 | 28.0 | 56 | 18.4 | 1007.7 | 3.2 | NO | 538 | 0.0 |
| 12.07.2021 | 14:04 | 28.2 | 54 | 18.0 | 1007.7 | 1.4 | N | 1025 | 0.0 |
| 12.07.2021 | 14:08 | 28.2 | 57 | 18.9 | 1007.5 | 3.2 | ONO | 443 | 0.0 |
| 12.07.2021 | 14:14 | 28.0 | 55 | 18.1 | 1007.5 | 4.7 | NO | 466 | 0.0 |
| 12.07.2021 | 14:18 | 27.8 | 56 | 18.2 | 1007.6 | 4.7 | NNO | 425 | 0.0 |
| 12.07.2021 | 14:24 | 27.8 | 56 | 18.2 | 1007.3 | 3.2 | ONO | 789 | 0.0 |
| 12.07.2021 | 14:28 | 27.9 | 56 | 18.3 | 1007.2 | 4.7 | NNW | 654 | 0.0 |
| 12.07.2021 | 14:34 | 27.9 | 57 | 18.6 | 1007.2 | 6.5 | NNO | 805 | 0.0 |
| 12.07.2021 | 14:38 | 28.0 | 58 | 19.0 | 1007.1 | 6.5 | NNO | 810 | 0.0 |
| 12.07.2021 | 14:44 | 28.2 | 56 | 18.6 | 1007.3 | 6.5 | NNO | 784 | 0.0 |
| 12.07.2021 | 14:48 | 28.4 | 56 | 18.8 | 1007.4 | 4.7 | NO | 728 | 0.0 |
| 12.07.2021 | 14:54 | 28.5 | 55 | 18.6 | 1007.3 | 1.4 | N | 515 | 0.0 |
| 12.07.2021 | 14:58 | 28.6 | 54 | 18.4 | 1007.3 | 1.4 | ONO | 457 | 0.0 |
| 12.07.2021 | 15:04 | 28.4 | 54 | 18.2 | 1007.0 | 3.2 | O | 422 | 0.0 |
| 12.07.2021 | 15:08 | 28.3 | 55 | 18.4 | 1007.1 | 3.2 | NO | 380 | 0.0 |
| 12.07.2021 | 15:14 | 28.2 | 54 | 18.0 | 1007.2 | 1.4 | N | 408 | 0.0 |
| 12.07.2021 | 15:18 | 28.1 | 54 | 17.9 | 1007.2 | 1.4 | ONO | 450 | 0.0 |
| 12.07.2021 | 15:24 | 28.1 | 57 | 18.8 | 1007.2 | 3.2 | NO | 341 | 0.0 |
| 12.07.2021 | 15:28 | 28.1 | 53 | 17.6 | 1007.2 | 3.2 | ONO | 316 | 0.0 |
| 12.07.2021 | 15:34 | 28.0 | 55 | 18.1 | 1007.1 | 0.0 | O | 204 | 0.0 |
| 12.07.2021 | 15:38 | 27.9 | 55 | 18.0 | 1007.2 | 0.0 | ONO | 234 | 0.0 |
| 12.07.2021 | 15:44 | 27.8 | 57 | 18.5 | 1006.9 | 1.4 | NO | 295 | 0.0 |
| 12.07.2021 | 15:48 | 27.7 | 57 | 18.4 | 1006.8 | 1.4 | NNO | 308 | 0.0 |
| 12.07.2021 | 15:54 | 27.5 | 63 | 19.8 | 1007.0 | 3.2 | NO | 485 | 0.0 |
| 12.07.2021 | 15:58 | 27.6 | 60 | 19.1 | 1007.1 | 3.2 | NNW | 445 | 0.0 |
| 12.07.2021 | 16:04 | 27.6 | 60 | 19.1 | 1006.9 | 0.0 | N | 415 | 0.0 |
| 12.07.2021 | 16:08 | 27.6 | 59 | 18.9 | 1006.9 | 1.4 | NNO | 432 | 0.0 |
| 12.07.2021 | 16:14 | 27.4 | 61 | 19.2 | 1006.9 | 4.7 | N | 397 | 0.0 |
| 12.07.2021 | 16:18 | 27.5 | 58 | 18.5 | 1006.9 | 6.5 | N | 485 | 0.0 |
| 12.07.2021 | 16:24 | 27.6 | 58 | 18.6 | 1006.7 | 3.2 | N | 559 | 0.0 |
| 12.07.2021 | 16:28 | 27.7 | 58 | 18.7 | 1006.7 | 1.4 | N | 712 | 0.0 |
| 12.07.2021 | 16:34 | 28.0 | 56 | 18.4 | 1006.7 | 3.2 | N | 759 | 0.0 |
| 12.07.2021 | 16:38 | 28.2 | 58 | 19.2 | 1006.6 | 3.2 | N | 506 | 0.0 |
| 12.07.2021 | 16:44 | 28.2 | 57 | 18.9 | 1006.7 | 4.7 | NNO | 598 | 0.0 |
| 12.07.2021 | 16:48 | 28.3 | 54 | 18.1 | 1006.6 | 3.2 | NO | 418 | 0.0 |
| 12.07.2021 | 16:54 | 28.3 | 54 | 18.1 | 1006.5 | 1.4 | NNO | 388 | 0.0 |
| 12.07.2021 | 16:58 | 28.3 | 56 | 18.7 | 1006.5 | 1.4 | N | 369 | 0.0 |
| 12.07.2021 | 17:04 | 28.3 | 53 | 17.8 | 1006.5 | 0.0 | NNW | 274 | 0.0 |
| 12.07.2021 | 17:08 | 28.3 | 55 | 18.4 | 1006.6 | 0.0 | NNW | 260 | 0.0 |
| 12.07.2021 | 17:14 | 28.2 | 57 | 18.9 | 1006.5 | 0.0 | N | 232 | 0.0 |
| 12.07.2021 | 17:18 | 28.2 | 53 | 17.7 | 1006.6 | 0.0 | NNO | 211 | 0.0 |
| 12.07.2021 | 17:24 | 28.1 | 55 | 18.2 | 1006.6 | 0.0 | NNO | 179 | 0.0 |
| 12.07.2021 | 17:28 | 27.8 | 56 | 18.2 | 1006.6 | 0.0 | N | 200 | 0.0 |
| 12.07.2021 | 17:34 | 27.8 | 58 | 18.8 | 1006.6 | 0.0 | N | 190 | 0.0 |
| 12.07.2021 | 17:38 | 27.7 | 60 | 19.2 | 1006.6 | 0.0 | N | 209 | 0.0 |
| 12.07.2021 | 17:44 | 27.6 | 58 | 18.6 | 1006.5 | 0.0 | N | 246 | 0.0 |
| 12.07.2021 | 17:48 | 27.5 | 57 | 18.2 | 1006.6 | 0.0 | N | 232 | 0.0 |
| 12.07.2021 | 17:54 | 27.4 | 58 | 18.4 | 1006.7 | 0.0 | O | 169 | 0.0 |
| 12.07.2021 | 17:58 | 27.4 | 58 | 18.4 | 1006.7 | 0.0 | OSO | 155 | 0.0 |
| 12.07.2021 | 18:04 | 27.2 | 60 | 18.8 | 1006.7 | 0.0 | OSO | 197 | 0.0 |
| 12.07.2021 | 18:08 | 27.2 | 61 | 19.0 | 1006.7 | 0.0 | OSO | 214 | 0.0 |
| 12.07.2021 | 18:14 | 27.1 | 60 | 18.7 | 1006.7 | 0.0 | OSO | 204 | 0.0 |
| 12.07.2021 | 18:18 | 27.0 | 61 | 18.8 | 1006.6 | 0.0 | OSO | 160 | 0.0 |
| 12.07.2021 | 18:24 | 26.9 | 61 | 18.7 | 1006.6 | 0.0 | OSO | 121 | 0.0 |
| 12.07.2021 | 18:28 | 26.8 | 61 | 18.6 | 1006.6 | 0.0 | OSO | 134 | 0.0 |
| 12.07.2021 | 18:34 | 26.8 | 61 | 18.6 | 1006.5 | 0.0 | OSO | 193 | 0.0 |
| 12.07.2021 | 18:38 | 26.8 | 60 | 18.4 | 1006.4 | 0.0 | OSO | 213 | 0.0 |
| 12.07.2021 | 18:44 | 26.8 | 61 | 18.6 | 1006.3 | 0.0 | OSO | 207 | 0.0 |
| 12.07.2021 | 18:48 | 26.8 | 62 | 18.9 | 1006.3 | 0.0 | OSO | 209 | 0.0 |
| 12.07.2021 | 18:54 | 26.8 | 62 | 18.9 | 1006.4 | 0.0 | OSO | 207 | 0.0 |
| 12.07.2021 | 18:58 | 26.9 | 62 | 19.0 | 1006.3 | 0.0 | OSO | 162 | 0.0 |
| 12.07.2021 | 19:04 | 26.8 | 62 | 18.9 | 1006.2 | 0.0 | SO | 148 | 0.0 |
| 12.07.2021 | 19:08 | 26.7 | 62 | 18.8 | 1006.2 | 0.0 | OSO | 104 | 0.0 |
| 12.07.2021 | 19:14 | 26.5 | 63 | 18.9 | 1006.2 | 0.0 | OSO | 91 | 0.0 |
| 12.07.2021 | 19:18 | 26.4 | 65 | 19.3 | 1006.1 | 0.0 | OSO | 83 | 0.0 |
| 12.07.2021 | 19:24 | 26.2 | 66 | 19.3 | 1006.0 | 0.0 | OSO | 72 | 0.0 |
| 12.07.2021 | 19:28 | 26.1 | 66 | 19.2 | 1005.9 | 0.0 | OSO | 74 | 0.0 |
| 12.07.2021 | 19:34 | 26.0 | 66 | 19.2 | 1006.0 | 0.0 | OSO | 67 | 0.0 |
| 12.07.2021 | 19:38 | 25.9 | 66 | 19.1 | 1006.1 | 0.0 | SW | 67 | 0.0 |
| 12.07.2021 | 19:44 | 25.8 | 67 | 19.2 | 1006.0 | 0.0 | O | 76 | 0.0 |
| 12.07.2021 | 19:48 | 25.7 | 68 | 19.3 | 1005.9 | 0.0 | O | 81 | 0.0 |
| 12.07.2021 | 19:54 | 25.6 | 69 | 19.5 | 1006.1 | 0.0 | O | 65 | 0.0 |
| 12.07.2021 | 19:58 | 25.5 | 70 | 19.6 | 1006.1 | 0.0 | O | 63 | 0.0 |
| 12.07.2021 | 20:04 | 25.4 | 71 | 19.8 | 1006.2 | 0.0 | O | 46 | 0.0 |
| 12.07.2021 | 20:08 | 25.3 | 72 | 19.9 | 1006.4 | 0.0 | O | 47 | 0.0 |
| 12.07.2021 | 20:14 | 25.1 | 73 | 19.9 | 1006.4 | 0.0 | OSO | 25 | 0.0 |
| 12.07.2021 | 20:18 | 24.9 | 73 | 19.7 | 1006.4 | 0.0 | OSO | 16 | 0.0 |
| 12.07.2021 | 20:24 | 24.7 | 74 | 19.8 | 1006.4 | 0.0 | S | 14 | 0.0 |
| 12.07.2021 | 20:28 | 24.6 | 74 | 19.7 | 1006.4 | 0.0 | S | 12 | 0.0 |
| 12.07.2021 | 20:34 | 24.3 | 74 | 19.4 | 1006.6 | 1.4 | S | 9 | 0.0 |
| 12.07.2021 | 20:38 | 24.2 | 75 | 19.5 | 1006.7 | 1.4 | S | 9 | 0.0 |
| 12.07.2021 | 20:44 | 23.9 | 75 | 19.2 | 1006.7 | 3.2 | S | 12 | 0.0 |
| 12.07.2021 | 20:48 | 23.8 | 76 | 19.3 | 1006.7 | 1.4 | S | 16 | 0.0 |
| 12.07.2021 | 20:54 | 23.7 | 77 | 19.4 | 1006.9 | 0.0 | S | 7 | 0.0 |
| 12.07.2021 | 20:58 | 23.6 | 78 | 19.5 | 1007.1 | 0.0 | SW | 5 | 0.0 |
| 12.07.2021 | 21:04 | 23.4 | 79 | 19.5 | 1007.0 | 0.0 | SW | 5 | 0.0 |
| 12.07.2021 | 21:08 | 23.3 | 80 | 19.7 | 1007.1 | 0.0 | SW | 0 | 0.0 |
| 12.07.2021 | 21:14 | 23.2 | 82 | 20.0 | 1007.3 | 0.0 | WSW | 0 | 0.0 |
| 12.07.2021 | 21:18 | 23.0 | 82 | 19.8 | 1007.5 | 0.0 | WSW | 0 | 0.0 |
| 12.07.2021 | 21:24 | 22.8 | 81 | 19.4 | 1007.7 | 3.2 | W | 0 | 0.0 |
| 12.07.2021 | 21:28 | 22.7 | 81 | 19.3 | 1007.8 | 6.5 | WSW | 0 | 0.0 |
| 12.07.2021 | 21:34 | 22.4 | 83 | 19.4 | 1007.7 | 9.7 | W | 0 | 0.0 |
| 12.07.2021 | 21:38 | 22.2 | 84 | 19.4 | 1007.8 | 11.2 | W | 0 | 0.2 |
| 12.07.2021 | 21:44 | 21.7 | 85 | 19.1 | 1007.9 | 9.7 | WSW | 0 | 0.6 |
| 12.07.2021 | 21:48 | 21.4 | 86 | 19.0 | 1008.0 | 6.5 | W | 0 | 1.0 |
| 12.07.2021 | 21:54 | 21.2 | 87 | 18.9 | 1008.1 | 1.4 | WNW | 0 | 1.0 |
| 12.07.2021 | 21:58 | 21.1 | 88 | 19.0 | 1008.1 | 0.0 | W | 0 | 1.2 |
| 12.07.2021 | 22:04 | 20.9 | 89 | 19.0 | 1008.0 | 0.0 | W | 0 | 1.4 |
| 12.07.2021 | 22:08 | 20.8 | 89 | 18.9 | 1007.9 | 0.0 | W | 0 | 1.4 |
| 12.07.2021 | 22:14 | 20.6 | 90 | 18.9 | 1008.1 | 0.0 | WSW | 0 | 1.6 |
| 12.07.2021 | 22:18 | 20.5 | 90 | 18.8 | 1008.1 | 0.0 | WSW | 0 | 1.8 |
| 12.07.2021 | 22:24 | 20.4 | 90 | 18.7 | 1008.2 | 0.0 | SW | 0 | 2.0 |
| 12.07.2021 | 22:28 | 20.3 | 91 | 18.8 | 1008.3 | 0.0 | SW | 0 | 2.2 |
| 12.07.2021 | 22:34 | 20.1 | 92 | 18.8 | 1008.1 | 0.0 | WSW | 0 | 3.0 |
| 12.07.2021 | 22:38 | 20.0 | 92 | 18.7 | 1008.1 | 0.0 | WSW | 0 | 3.2 |
| 12.07.2021 | 22:44 | 19.9 | 92 | 18.6 | 1008.1 | 0.0 | WSW | 0 | 4.4 |
| 12.07.2021 | 22:48 | 19.8 | 92 | 18.5 | 1008.0 | 0.0 | WSW | 0 | 5.0 |
| 12.07.2021 | 22:54 | 19.8 | 92 | 18.5 | 1007.9 | 0.0 | WSW | 0 | 5.2 |
| 12.07.2021 | 22:58 | 19.8 | 93 | 18.6 | 1007.7 | 0.0 | O | 0 | 5.4 |
| 12.07.2021 | 23:04 | 19.7 | 93 | 18.5 | 1007.8 | 0.0 | O | 0 | 6.4 |
| 12.07.2021 | 23:08 | 19.6 | 94 | 18.6 | 1007.7 | 0.0 | O | 0 | 6.6 |
| 12.07.2021 | 23:14 | 19.6 | 94 | 18.6 | 1007.8 | 0.0 | O | 0 | 6.8 |
| 12.07.2021 | 23:18 | 19.6 | 94 | 18.6 | 1007.8 | 0.0 | O | 0 | 6.8 |
| 12.07.2021 | 23:24 | 19.5 | 94 | 18.5 | 1007.9 | 0.0 | O | 0 | 6.8 |
| 12.07.2021 | 23:28 | 19.4 | 94 | 18.4 | 1007.9 | 0.0 | O | 0 | 6.8 |
| 12.07.2021 | 23:34 | 19.4 | 95 | 18.6 | 1007.9 | 0.0 | O | 0 | 6.8 |
| 12.07.2021 | 23:38 | 19.4 | 95 | 18.6 | 1007.9 | 0.0 | O | 0 | 6.8 |
| 12.07.2021 | 23:44 | 19.3 | 95 | 18.5 | 1008.0 | 0.0 | O | 0 | 6.8 |
| 12.07.2021 | 23:48 | 19.3 | 95 | 18.5 | 1008.1 | 0.0 | O | 0 | 6.8 |
| 12.07.2021 | 23:54 | 19.3 | 96 | 18.6 | 1008.1 | 0.0 | O | 0 | 6.8 |
| 12.07.2021 | 23:58 | 19.3 | 96 | 18.6 | 1008.2 | 0.0 | SW | 0 | 7.0 |